Time;durP1;ratioP1;P1;durP2;ratioP2;P2;SDS_P1;SDS_P2;PMS_P1;PMS_P2;Temp;Humidity;BMP_temperature;BMP_pressure;BME280_temperature;BME280_humidity;BME280_pressure;Samples;Min_cycle;Max_cycle;Signal;HPM_P1;HPM_P2
2022/01/19 00:01:25;;;;;;;2.95;1.00;;;;;;;-5.58;100.00;100278.30;1685529;84;21585;-66
2022/01/19 00:03:51;;;;;;;3.05;0.85;;;;;;;-5.58;100.00;100265.52;1684687;84;20992;-66
2022/01/19 00:06:18;;;;;;;4.15;1.20;;;;;;;-5.59;100.00;100269.99;1692408;84;21068;-66
2022/01/19 00:08:45;;;;;;;2.80;1.00;;;;;;;-5.62;100.00;100283.57;1690691;84;21071;-67
2022/01/19 00:11:11;;;;;;;;;;;;;;;-5.61;100.00;100285.73;1702961;84;21096;-67
2022/01/19 00:13:37;;;;;;;3.17;0.85;;;;;;;-5.61;100.00;100302.97;1699044;84;20156;-67
2022/01/19 00:16:04;;;;;;;3.72;1.00;;;;;;;-5.65;100.00;100297.64;1687387;84;21087;-65
2022/01/19 00:18:31;;;;;;;3.72;1.17;;;;;;;-5.63;100.00;100299.62;1687716;84;21035;-67
2022/01/19 00:20:57;;;;;;;1.60;0.62;;;;;;;-5.68;100.00;100297.95;1691934;84;21063;-66
2022/01/19 00:23:24;;;;;;;3.35;1.00;;;;;;;-5.65;100.00;100304.27;1693435;84;21538;-66
2022/01/19 00:25:53;;;;;;;2.83;1.00;;;;;;;-5.66;100.00;100303.92;1686814;84;21062;-66
2022/01/19 00:28:19;;;;;;;3.70;0.78;;;;;;;-5.66;100.00;100306.57;1695760;84;21036;-66
2022/01/19 00:30:47;;;;;;;3.02;1.05;;;;;;;-5.67;100.00;100308.38;1705530;83;21161;-66
2022/01/19 00:33:14;;;;;;;3.22;0.80;;;;;;;-5.69;100.00;100310.38;1700012;84;21578;-66
2022/01/19 00:35:41;;;;;;;4.87;0.90;;;;;;;-5.70;100.00;100302.55;1697315;84;21072;-66
2022/01/19 00:38:08;;;;;;;5.87;1.25;;;;;;;-5.72;100.00;100301.89;1691853;84;21028;-66
2022/01/19 00:40:37;;;;;;;4.03;1.40;;;;;;;-5.77;100.00;100299.69;1693403;84;21660;-66
2022/01/19 00:43:03;;;;;;;4.40;1.10;;;;;;;-5.77;100.00;100301.02;1699153;84;21055;-66
2022/01/19 00:45:30;;;;;;;2.65;0.95;;;;;;;-5.77;100.00;100302.34;1703442;84;21079;-67
2022/01/19 00:47:56;;;;;;;4.15;1.22;;;;;;;-5.78;100.00;100310.47;1700424;84;21553;-67
2022/01/19 00:50:27;;;;;;;3.42;1.10;;;;;;;-5.81;100.00;100314.23;1701443;84;21079;-67
2022/01/19 00:52:54;;;;;;;4.08;1.22;;;;;;;-5.85;100.00;100326.66;1697683;84;21095;-67
2022/01/19 00:55:24;;;;;;;5.05;1.40;;;;;;;-5.89;100.00;100327.48;1695114;83;21083;-66
2022/01/19 00:57:51;;;;;;;4.28;1.60;;;;;;;-5.87;100.00;100325.98;1699021;84;21075;-66
2022/01/19 01:00:23;;;;;;;3.70;1.47;;;;;;;-5.90;100.00;100328.45;1698908;84;21099;-67
2022/01/19 01:02:51;;;;;;;4.80;1.75;;;;;;;-5.91;100.00;100329.92;1698693;84;21098;-67
2022/01/19 01:05:18;;;;;;;5.67;1.27;;;;;;;-5.91;100.00;100332.57;1687003;84;21028;-66
2022/01/19 01:07:44;;;;;;;4.28;1.55;;;;;;;-5.96;100.00;100330.89;1685468;84;21530;-66
2022/01/19 01:10:14;;;;;;;4.17;1.30;;;;;;;-6.00;100.00;100321.56;1690121;84;21063;-66
2022/01/19 01:12:49;;;;;;;5.17;1.50;;;;;;;-6.04;100.00;100322.36;1697142;84;21071;-66
2022/01/19 01:20:34;;;;;;;2.80;1.00;;;;;;;-6.16;100.00;100323.06;1693970;84;21056;-66
2022/01/19 01:23:00;;;;;;;4.22;1.27;;;;;;;-6.18;100.00;100324.21;1694019;84;21645;-66
2022/01/19 01:25:27;;;;;;;3.60;1.00;;;;;;;-6.20;100.00;100323.02;1693354;84;21079;-66
2022/01/19 01:27:53;;;;;;;3.30;1.10;;;;;;;-6.23;100.00;100327.79;1687126;84;21087;-66
2022/01/19 01:30:20;;;;;;;3.85;1.30;;;;;;;-6.26;100.00;100327.61;1703398;84;21032;-66
2022/01/19 01:32:47;;;;;;;3.67;1.12;;;;;;;-6.32;100.00;100324.73;1691042;83;21658;-66
2022/01/19 01:35:14;;;;;;;4.78;1.62;;;;;;;-6.34;100.00;100326.19;1681997;84;21091;-66
2022/01/19 01:37:41;;;;;;;3.62;1.22;;;;;;;-6.36;100.00;100332.63;1681510;84;21072;-66
2022/01/19 01:40:09;;;;;;;3.67;1.40;;;;;;;-6.39;100.00;100336.91;1697064;84;21116;-66
2022/01/19 01:42:36;;;;;;;4.33;1.17;;;;;;;-6.43;100.00;100332.39;1703005;84;21039;-66
2022/01/19 01:45:04;;;;;;;4.47;1.40;;;;;;;-6.47;100.00;100332.83;1691795;84;21064;-66
2022/01/19 01:47:33;;;;;;;4.75;1.70;;;;;;;-6.51;100.00;100330.12;1668401;84;21668;-66
2022/01/19 01:55:21;;;;;;;6.15;1.60;;;;;;;-6.61;100.00;100323.09;1691605;84;21056;-66
2022/01/19 01:57:48;;;;;;;2.67;1.12;;;;;;;-6.65;100.00;100319.55;1662997;84;21095;-66
2022/01/19 02:00:18;;;;;;;4.53;1.67;;;;;;;-6.67;100.00;100314.42;1681279;84;21076;-66
2022/01/19 02:02:45;;;;;;;4.10;1.50;;;;;;;-6.67;100.00;100322.84;1688349;84;21617;-66
2022/01/19 02:05:14;;;;;;;6.28;1.80;;;;;;;-6.69;100.00;100320.33;1694075;84;21147;-66
2022/01/19 02:08:06;;;;;;;6.75;1.40;;;;;;;-6.71;100.00;100317.50;1688276;84;21543;-66
2022/01/19 02:10:36;;;;;;;6.12;1.90;;;;;;;-6.74;100.00;100310.70;1699733;84;21557;-66
2022/01/19 02:15:55;;;;;;;6.97;1.72;;;;;;;-6.78;100.00;100325.20;1691970;84;21107;-66
2022/01/19 02:23:51;;;;;;;4.33;1.65;;;;;;;-6.89;100.00;100319.25;1693492;84;21004;-66
2022/01/19 02:26:21;;;;;;;6.55;1.47;;;;;;;-6.94;100.00;100326.81;1688134;84;21087;-66
2022/01/19 02:29:04;;;;;;;4.20;1.30;;;;;;;-6.97;100.00;100323.11;1694163;84;21036;-65
2022/01/19 02:40:12;;;;;;;6.67;2.50;;;;;;;-7.06;100.00;100338.91;1703337;83;21518;-66
2022/01/19 02:42:55;;;;;;;6.03;2.37;;;;;;;-7.10;100.00;100335.36;1693367;83;21071;-65
2022/01/19 02:50:27;;;;;;;8.20;2.25;;;;;;;-7.16;100.00;100326.69;1695170;83;21098;-66
2022/01/19 02:52:53;;;;;;;8.18;2.40;;;;;;;-7.18;100.00;100322.84;1708121;83;21075;-67
2022/01/19 02:55:20;;;;;;;4.78;2.12;;;;;;;-7.21;100.00;100315.69;1696831;83;21067;-66
2022/01/19 02:57:46;;;;;;;7.62;1.82;;;;;;;-7.23;100.00;100313.69;1706910;83;21035;-66
2022/01/19 03:08:47;;;;;;;4.05;1.42;;;;;;;-7.23;100.00;100300.46;1707772;83;21664;-67
2022/01/19 03:11:19;;;;;;;4.47;2.02;;;;;;;-7.25;100.00;100302.40;1711581;83;21095;-66
2022/01/19 03:13:47;;;;;;;7.17;2.80;;;;;;;-7.25;100.00;100303.72;1704969;83;21542;-67
2022/01/19 03:16:14;;;;;;;8.90;4.45;;;;;;;-7.25;100.00;100295.78;1706316;83;21074;-67
2022/01/19 03:18:40;;;;;;;7.70;4.50;;;;;;;-7.26;100.00;100288.85;1716765;83;21074;-67
2022/01/19 03:21:07;;;;;;;8.85;4.70;;;;;;;-7.28;100.00;100285.02;1709391;83;21664;-67
2022/01/19 03:23:34;;;;;;;7.85;4.03;;;;;;;-7.29;100.00;100283.82;1704016;83;21091;-67
2022/01/19 03:26:06;;;;;;;10.85;6.62;;;;;;;-7.30;100.00;100280.85;1695843;83;21055;-67
2022/01/19 03:28:29;;;;;;;11.22;6.58;;;;;;;-7.33;100.00;100278.50;1702167;83;21083;-67
2022/01/19 03:30:55;;;;;;;12.93;7.03;;;;;;;-7.33;100.00;100274.53;1703257;83;21126;-67
2022/01/19 03:33:22;;;;;;;9.18;5.08;;;;;;;-7.36;100.00;100269.50;1681042;83;21044;-67
2022/01/19 03:35:48;;;;;;;7.83;3.60;;;;;;;-7.38;100.00;100263.55;1661634;85;21577;-67
2022/01/19 03:38:15;;;;;;;6.72;2.80;;;;;;;-7.41;100.00;100271.28;1680185;84;21088;-67
2022/01/19 03:40:41;;;;;;;6.90;2.50;;;;;;;-7.43;100.00;100276.35;1680666;84;21079;-67
2022/01/19 03:43:07;;;;;;;6.17;1.95;;;;;;;-7.46;100.00;100283.25;1697809;84;21047;-67
2022/01/19 03:47:21;;;;;;;4.97;1.90;;;;;;;-7.41;100.00;100288.96;1804404;78;22862;-66
2022/01/19 03:49:47;;;;;;;7.50;2.35;;;;;;;-7.51;100.00;100288.99;1771308;80;20964;-66
2022/01/19 03:52:15;;;;;;;4.75;2.08;;;;;;;-7.51;100.00;100290.80;1728041;82;21066;-66
2022/01/19 03:54:43;;;;;;;7.50;2.35;;;;;;;-7.51;100.00;100278.91;1739243;82;21083;-66
2022/01/19 03:57:10;;;;;;;5.50;1.80;;;;;;;-7.53;100.00;100284.80;1748868;82;21007;-66
2022/01/19 03:59:38;;;;;;;5.72;1.90;;;;;;;-7.54;100.00;100288.45;1748227;82;21031;-66
2022/01/19 04:02:05;;;;;;;5.00;1.80;;;;;;;-7.56;100.00;100303.12;1727317;82;21699;-66
2022/01/19 04:04:53;;;;;;;6.65;1.80;;;;;;;-7.57;100.00;100303.60;1731612;82;21067;-66
2022/01/19 04:07:17;;;;;;;6.42;1.92;;;;;;;-7.59;100.00;100304.25;1731588;82;21082;-66
2022/01/19 04:09:45;;;;;;;5.87;1.90;;;;;;;-7.60;100.00;100302.56;1739971;82;21035;-68
2022/01/19 04:12:17;;;;;;;;;;;;;;;-7.61;100.00;100296.92;1751845;82;21071;-67
2022/01/19 04:14:41;;;;;;;8.78;2.35;;;;;;;-7.61;100.00;100299.57;1746556;82;20405;-67
2022/01/19 04:17:13;;;;;;;;;;;;;;;-7.66;100.00;100300.50;1740741;82;21130;-67
2022/01/19 04:20:01;;;;;;;9.03;3.62;;;;;;;-7.64;100.00;100310.92;1741705;82;20115;-66
2022/01/19 04:22:28;;;;;;;7.85;2.95;;;;;;;-7.70;100.00;100314.98;1658418;85;21058;-66
2022/01/19 04:24:56;;;;;;;8.65;4.28;;;;;;;-7.69;100.00;100310.52;1629285;87;21123;-67
2022/01/19 04:30:08;;;;;;;9.73;4.92;;;;;;;-7.72;100.00;100311.62;1644534;86;21102;-68
2022/01/19 04:32:43;;;;;;;10.65;5.85;;;;;;;-7.71;100.00;100316.42;1643103;87;21646;-65
2022/01/19 04:35:06;;;;;;;13.93;6.20;;;;;;;-7.73;100.00;100324.52;1645448;86;21110;-67
2022/01/19 04:46:01;;;;;;;14.70;6.90;;;;;;;-7.82;100.00;100331.95;1644617;86;21121;-67
2022/01/19 04:48:21;;;;;;;19.00;7.15;;;;;;;-7.83;100.00;100347.96;1616715;87;21063;-67
2022/01/19 05:01:57;;;;;;;12.13;6.20;;;;;;;-7.86;100.00;100332.36;1615795;87;21578;-67
2022/01/19 05:04:34;;;;;;;12.60;6.60;;;;;;;-7.84;100.00;100335.71;1642104;87;21119;-67
2022/01/19 05:07:11;;;;;;;10.85;6.03;;;;;;;-7.83;100.00;100340.03;1642568;87;21589;-67
2022/01/19 05:14:48;;;;;;;11.73;6.50;;;;;;;-7.77;100.00;100339.47;1644403;86;21123;-66
2022/01/19 05:17:15;;;;;;;;;;;;;;;-7.78;100.00;100341.27;1646822;87;21048;-66
2022/01/19 05:19:41;;;;;;;15.20;7.58;;;;;;;-7.75;100.00;100339.66;1644151;87;20466;-66
2022/01/19 05:22:08;;;;;;;12.23;6.72;;;;;;;-7.75;100.00;100334.86;1638228;86;21038;-66
2022/01/19 05:24:51;;;;;;;14.60;5.83;;;;;;;-7.73;100.00;100341.70;1636751;86;21132;-66
2022/01/19 05:27:21;;;;;;;12.07;6.47;;;;;;;-7.72;100.00;100342.02;1625268;88;21047;-65
2022/01/19 05:29:49;;;;;;;12.35;6.22;;;;;;;-7.70;100.00;100327.35;1632184;86;21083;-66
2022/01/19 05:32:16;;;;;;;11.88;6.25;;;;;;;-7.66;100.00;100328.27;1640120;87;21014;-65
2022/01/19 05:34:43;;;;;;;14.55;6.95;;;;;;;-7.65;100.00;100324.63;1650050;87;21072;-65
2022/01/19 05:37:11;;;;;;;15.25;6.35;;;;;;;-7.62;100.00;100319.08;1641698;86;21027;-66
2022/01/19 05:39:45;;;;;;;12.47;6.00;;;;;;;-7.60;100.00;100313.62;1637922;86;21151;-66
2022/01/19 05:42:31;;;;;;;13.50;7.25;;;;;;;-7.58;100.00;100317.79;1636261;87;21694;-67
2022/01/19 05:44:57;;;;;;;11.63;6.85;;;;;;;-7.57;100.00;100312.02;1636726;88;21125;-66
2022/01/19 05:47:24;;;;;;;12.50;6.65;;;;;;;-7.52;100.00;100320.86;1637165;88;21046;-66
2022/01/19 05:49:51;;;;;;;14.90;7.67;;;;;;;-7.48;100.00;100317.80;1636270;86;21104;-66
2022/01/19 05:52:17;;;;;;;;;;;;;;;-7.45;100.00;100312.22;1639221;88;21109;-66
2022/01/19 05:54:45;;;;;;;15.43;7.12;;;;;;;-7.41;100.00;100311.44;1636927;88;20129;-66
2022/01/19 05:57:11;;;;;;;17.25;8.08;;;;;;;-7.40;100.00;100317.09;1634606;88;21518;-66
2022/01/19 05:59:42;;;;;;;12.58;6.87;;;;;;;-7.36;100.00;100329.86;1636886;87;21034;-66
2022/01/19 06:02:09;;;;;;;15.38;7.53;;;;;;;-7.34;100.00;100335.02;1636702;88;21061;-66
2022/01/19 06:04:36;;;;;;;17.00;8.70;;;;;;;-7.30;100.00;100342.53;1636945;86;21566;-66
2022/01/19 06:07:26;;;;;;;27.25;8.35;;;;;;;-7.27;100.00;100340.92;1636606;88;21045;-67
2022/01/19 06:10:05;;;;;;;17.70;8.15;;;;;;;-7.20;100.00;100342.50;1631634;86;21075;-66
2022/01/19 06:12:32;;;;;;;16.20;6.53;;;;;;;-7.13;100.00;100339.63;1631788;88;21066;-67
2022/01/19 06:15:00;;;;;;;15.23;6.25;;;;;;;-7.04;100.00;100344.03;1641836;85;21086;-67
2022/01/19 06:17:27;;;;;;;;;;;;;;;-6.95;100.00;100345.83;1650884;86;21017;-67
2022/01/19 06:19:53;;;;;;;12.03;4.37;;;;;;;-6.89;100.00;100340.43;1606722;88;20106;-67
2022/01/19 06:22:21;;;;;;;9.50;4.55;;;;;;;-6.88;100.00;100342.11;1636936;86;21069;-66
2022/01/19 06:24:48;;;;;;;10.43;4.12;;;;;;;-6.81;100.00;100336.58;1636982;86;21056;-66
2022/01/19 06:27:16;;;;;;;10.28;3.40;;;;;;;-6.75;100.00;100335.98;1636780;87;21026;-67
2022/01/19 06:29:43;;;;;;;8.18;2.85;;;;;;;-6.66;100.00;100339.89;1637439;88;21482;-66
2022/01/19 06:32:10;;;;;;;8.00;2.83;;;;;;;-6.62;100.00;100335.98;1637439;88;21051;-67
2022/01/19 06:34:37;;;;;;;11.45;2.80;;;;;;;-6.56;100.00;100336.73;1638356;87;21088;-67
2022/01/19 06:37:21;;;;;;;8.83;3.00;;;;;;;-6.48;100.00;100355.02;1617520;88;21068;-66
2022/01/19 06:39:52;;;;;;;10.58;3.83;;;;;;;-6.41;100.00;100354.77;1635795;86;21089;-66
2022/01/19 06:42:18;;;;;;;11.93;4.20;;;;;;;-6.35;100.00;100358.14;1637180;88;21068;-67
2022/01/19 06:44:45;;;;;;;12.90;5.17;;;;;;;-6.26;100.00;100354.11;1637244;86;21069;-67
2022/01/19 06:47:11;;;;;;;;;;;;;;;-6.19;100.00;100349.03;1639602;88;21051;-67
2022/01/19 06:49:38;;;;;;;17.27;6.20;;;;;;;-6.09;100.00;100343.17;1637265;86;20175;-66
2022/01/19 06:52:06;;;;;;;16.45;6.17;;;;;;;-6.05;100.00;100343.22;1637079;88;21079;-67
2022/01/19 06:54:35;;;;;;;19.62;6.45;;;;;;;-5.97;100.00;100341.98;1636915;88;21071;-67
2022/01/19 06:57:02;;;;;;;17.02;5.87;;;;;;;-5.90;100.00;100339.55;1636886;88;21097;-67
2022/01/19 06:59:30;;;;;;;18.55;6.53;;;;;;;-5.84;100.00;100338.90;1636798;86;21060;-67
2022/01/19 07:01:59;;;;;;;19.98;6.97;;;;;;;-5.77;100.00;100339.95;1631931;88;21087;-68
2022/01/19 07:04:28;;;;;;;16.45;6.00;;;;;;;-5.72;100.00;100341.67;1635355;87;21570;-68
2022/01/19 07:06:54;;;;;;;;;;;;;;;-5.68;100.00;100333.27;1638731;86;21164;-67
2022/01/19 07:09:23;;;;;;;12.63;4.70;;;;;;;-5.59;100.00;100339.45;1640753;85;20116;-66
2022/01/19 07:11:51;;;;;;;16.97;5.70;;;;;;;-5.59;100.00;100342.94;1650584;84;21103;-67
2022/01/19 07:14:19;;;;;;;18.05;5.83;;;;;;;-5.56;100.00;100328.04;1630218;85;20987;-66
2022/01/19 07:16:47;;;;;;;13.95;5.47;;;;;;;-5.52;100.00;100330.73;1640549;85;21125;-66
2022/01/19 07:19:14;;;;;;;11.75;4.47;;;;;;;-5.46;100.00;100327.12;1653860;86;21020;-67
2022/01/19 07:21:41;;;;;;;6.80;3.10;;;;;;;-5.39;100.00;100325.03;1638840;86;21602;-67
2022/01/19 07:24:08;;;;;;;9.00;3.42;;;;;;;-5.31;100.00;100322.90;1658950;86;21035;-67
2022/01/19 07:26:35;;;;;;;10.32;3.50;;;;;;;-5.27;100.00;100326.42;1643881;87;21151;-67
2022/01/19 07:29:03;;;;;;;8.18;2.70;;;;;;;-5.20;100.00;100333.27;1645232;86;21096;-66
2022/01/19 07:31:30;;;;;;;7.37;2.58;;;;;;;-5.15;100.00;100333.64;1643770;86;21654;-65
2022/01/19 07:33:58;;;;;;;8.83;3.27;;;;;;;-5.17;100.00;100328.47;1641334;87;21056;-66
2022/01/19 07:36:24;;;;;;;8.63;3.17;;;;;;;-5.09;100.00;100323.71;1644095;86;21102;-66
2022/01/19 07:38:51;;;;;;;10.68;4.15;;;;;;;-5.02;100.00;100316.78;1636409;87;21051;-67
2022/01/19 07:41:18;;;;;;;12.15;4.85;;;;;;;-4.99;100.00;100323.09;1632789;86;21580;-66
2022/01/19 07:43:47;;;;;;;13.30;5.03;;;;;;;-4.95;100.00;100313.83;1636079;87;21513;-68
2022/01/19 07:46:25;;;;;;;10.43;4.12;;;;;;;-4.91;100.00;100311.20;1631528;87;21099;-69
2022/01/19 07:48:53;;;;;;;7.78;3.15;;;;;;;-4.87;100.00;100310.39;1634673;86;21092;-67
2022/01/19 07:51:34;;;;;;;9.45;3.72;;;;;;;-4.82;100.00;100306.28;1643162;87;21134;-66
2022/01/19 07:54:02;;;;;;;11.45;3.65;;;;;;;-4.78;100.00;100305.47;1598408;88;21087;-67
2022/01/19 07:56:37;;;;;;;11.65;3.83;;;;;;;-4.73;100.00;100306.64;1606694;87;21144;-66
2022/01/19 07:59:23;;;;;;;12.82;4.72;;;;;;;-4.70;100.00;100306.31;1641365;85;21548;-66
2022/01/19 08:01:56;;;;;;;13.30;5.08;;;;;;;-4.66;100.00;100293.54;1641633;87;22054;-67
2022/01/19 08:04:24;;;;;;;12.70;4.60;;;;;;;-4.61;100.00;100294.74;1631435;87;21047;-69
2022/01/19 08:06:54;;;;;;;9.73;4.42;;;;;;;-4.60;100.00;100296.38;1643209;85;21086;-67
2022/01/19 08:09:22;;;;;;;12.68;5.33;;;;;;;-4.54;100.00;100299.75;1643852;87;21521;-67
2022/01/19 08:11:48;;;;;;;16.50;6.05;;;;;;;-4.50;100.00;100298.09;1614643;87;21122;-67
2022/01/19 08:14:17;;;;;;;11.88;5.12;;;;;;;-4.44;100.00;100300.92;1640489;87;21039;-67
2022/01/19 08:16:43;;;;;;;12.65;5.30;;;;;;;-4.37;100.00;100299.78;1641250;87;21535;-67
2022/01/19 08:19:10;;;;;;;12.65;5.22;;;;;;;-4.30;100.00;100309.60;1651714;85;21036;-67
2022/01/19 08:21:37;;;;;;;12.28;5.28;;;;;;;-4.18;100.00;100310.13;1641952;86;21026;-67
2022/01/19 08:24:05;;;;;;;13.30;4.72;;;;;;;-4.06;100.00;100302.16;1627180;88;21080;-67
2022/01/19 08:26:32;;;;;;;10.48;4.80;;;;;;;-3.86;100.00;100304.03;1642196;86;21899;-66
2022/01/19 08:29:00;;;;;;;9.03;4.10;;;;;;;-3.66;100.00;100292.88;1619427;88;21567;-66
2022/01/19 08:31:26;;;;;;;9.48;4.42;;;;;;;-3.39;100.00;100282.86;1614670;87;21163;-66
2022/01/19 08:34:00;;;;;;;9.85;4.53;;;;;;;-3.16;100.00;100275.84;1643782;86;21043;-66
2022/01/19 08:36:29;;;;;;;11.63;4.70;;;;;;;-2.84;100.00;100270.41;1631438;87;21183;-67
2022/01/19 08:39:00;;;;;;;9.23;4.03;;;;;;;-2.60;100.00;100264.96;1632932;88;21080;-66
2022/01/19 08:41:29;;;;;;;9.28;3.87;;;;;;;-2.57;100.00;100263.27;1633833;86;21143;-66
2022/01/19 08:43:55;;;;;;;10.08;4.03;;;;;;;-2.65;100.00;100266.47;1639029;86;21046;-67
2022/01/19 08:54:03;;;;;;;11.85;4.35;;;;;;;-2.97;100.00;100257.28;1768211;80;22594;-66
2022/01/19 08:56:31;;;;;;;8.80;4.12;;;;;;;-3.05;100.00;100255.50;1713272;82;21070;-67
2022/01/19 08:58:58;;;;;;;7.90;3.67;;;;;;;-3.07;100.00;100258.81;1670372;84;21094;-68
2022/01/19 09:01:24;;;;;;;9.10;4.15;;;;;;;-3.04;100.00;100255.31;1652623;86;21053;-68
2022/01/19 09:03:50;;;;;;;10.50;4.53;;;;;;;-2.87;100.00;100253.41;1649223;86;21091;-67
2022/01/19 09:06:19;;;;;;;10.53;4.58;;;;;;;-2.64;100.00;100242.33;1665980;84;21070;-68
2022/01/19 09:08:46;;;;;;;9.95;4.55;;;;;;;-2.36;100.00;100241.33;1658963;85;21045;-67
2022/01/19 09:11:12;;;;;;;;;;;;;;;-2.03;100.00;100231.27;1674443;84;21090;-67
2022/01/19 09:13:39;;;;;;;10.05;3.90;;;;;;;-1.86;100.00;100229.28;1650123;86;20184;-67
2022/01/19 09:16:05;;;;;;;;;;;;;;;-1.82;100.00;100223.41;1672049;85;21575;-68
2022/01/19 09:18:32;;;;;;;10.13;4.65;;;;;;;-1.79;100.00;100226.22;1669430;86;20109;-68
2022/01/19 09:20:58;;;;;;;10.80;4.60;;;;;;;-1.81;100.00;100224.25;1639662;87;21693;-68
2022/01/19 09:23:25;;;;;;;9.80;4.20;;;;;;;-1.70;100.00;100221.95;1647382;84;21028;-68
2022/01/19 09:25:51;;;;;;;10.00;4.10;;;;;;;-1.63;100.00;100220.22;1669422;84;21069;-68
2022/01/19 09:28:17;;;;;;;10.93;4.72;;;;;;;-1.53;100.00;100215.47;1669724;85;21010;-68
2022/01/19 09:30:45;;;;;;;12.45;4.90;;;;;;;-1.54;100.00;100208.97;1669634;84;21721;-69
2022/01/19 09:33:19;;;;;;;10.93;4.55;;;;;;;-1.52;100.00;100203.76;1652289;87;21096;-69
2022/01/19 09:38:36;;;;;;;11.40;4.35;;;;;;;-1.45;100.00;100195.84;1651969;86;21591;-69
2022/01/19 09:41:06;;;;;;;6.40;3.22;;;;;;;-1.42;100.00;100192.83;1669734;86;21136;-69
2022/01/19 09:43:32;;;;;;;7.70;3.15;;;;;;;-1.39;100.00;100196.97;1628008;87;21028;-69
2022/01/19 09:46:01;;;;;;;6.17;2.58;;;;;;;-1.30;100.00;100197.19;1644244;87;21099;-69
2022/01/19 09:48:28;;;;;;;7.55;3.47;;;;;;;-1.24;100.00;100193.27;1625694;88;21617;-69
2022/01/19 09:50:56;;;;;;;8.08;3.22;;;;;;;-1.12;100.00;100196.31;1626718;87;21605;-69
2022/01/19 09:53:23;;;;;;;8.75;3.10;;;;;;;-0.96;100.00;100198.80;1660408;86;21122;-69
2022/01/19 09:55:50;;;;;;;7.67;2.83;;;;;;;-0.92;100.00;100196.58;1688281;84;21122;-69
2022/01/19 09:58:18;;;;;;;8.23;2.90;;;;;;;-0.87;100.00;100198.17;1654987;85;21057;-69
2022/01/19 10:00:44;;;;;;;7.03;2.45;;;;;;;-0.87;100.00;100191.48;1668945;85;21058;-69
2022/01/19 10:03:16;;;;;;;10.35;3.00;;;;;;;-0.90;100.00;100194.03;1672256;85;21079;-69
2022/01/19 10:06:10;;;;;;;8.03;3.35;;;;;;;-0.88;100.00;100189.82;1712208;82;21113;-69
2022/01/19 10:08:54;;;;;;;7.15;2.92;;;;;;;-0.92;100.00;100195.25;1712051;84;21126;-69
2022/01/19 10:16:59;;;;;;;9.25;3.30;;;;;;;-0.87;100.00;100190.98;1697868;82;21103;-69
2022/01/19 10:17:00;;;;;;;8.55;3.58;;;;;;;-0.87;100.00;100185.64;1687787;85;21055;-69
2022/01/19 10:19:48;;;;;;;7.62;2.92;;;;;;;-0.92;100.00;100181.88;1654659;85;21049;-69
2022/01/19 10:22:23;;;;;;;6.37;3.05;;;;;;;-0.94;100.00;100179.89;1696028;84;21475;-69
2022/01/19 10:24:56;;;;;;;7.40;3.55;;;;;;;-1.03;100.00;100180.52;1682485;83;21030;-69
2022/01/19 10:27:40;;;;;;;9.03;3.45;;;;;;;-1.06;100.00;100176.86;1700196;84;21042;-69
2022/01/19 10:30:12;;;;;;;10.03;4.12;;;;;;;-1.10;100.00;100171.59;1638461;86;21015;-69
2022/01/19 10:32:52;;;;;;;9.63;4.50;;;;;;;-1.14;100.00;100163.12;1687868;85;21587;-69
2022/01/19 10:35:36;;;;;;;10.10;4.90;;;;;;;-1.15;100.00;100168.63;1687913;84;21074;-69
2022/01/19 10:38:25;;;;;;;14.47;6.22;;;;;;;-1.13;100.00;100163.41;1687936;85;21066;-69
2022/01/19 10:41:04;;;;;;;11.22;5.05;;;;;;;-1.16;100.00;100153.11;1654468;85;21139;-69
2022/01/19 10:43:39;;;;;;;9.13;4.50;;;;;;;-1.11;100.00;100137.86;1687816;84;21863;-69
2022/01/19 10:46:30;;;;;;;9.50;4.58;;;;;;;-1.00;100.00;100126.70;1654745;85;21113;-69
2022/01/19 10:49:08;;;;;;;11.95;4.85;;;;;;;-0.90;100.00;100125.88;1698954;84;21026;-69
2022/01/19 10:51:43;;;;;;;;;;;;;;;-0.88;100.00;100128.34;1702325;83;21160;-69
2022/01/19 10:54:17;;;;;;;11.75;4.53;;;;;;;-0.89;100.00;100136.06;1703957;84;20133;-69
2022/01/19 10:56:50;;;;;;;10.00;4.00;;;;;;;-0.93;100.00;100146.31;1698784;83;21082;-69
2022/01/19 10:59:18;;;;;;;10.25;4.17;;;;;;;-0.89;100.00;100150.27;1622381;86;21575;-69
2022/01/19 11:01:56;;;;;;;10.18;4.50;;;;;;;-0.87;100.00;100149.55;1649607;85;21739;-69
2022/01/19 11:04:27;;;;;;;10.88;4.78;;;;;;;-0.79;100.00;100148.62;1664599;84;21525;-68
2022/01/19 11:07:05;;;;;;;9.50;4.53;;;;;;;-0.76;100.00;100143.72;1632823;86;21084;-68
2022/01/19 11:09:43;;;;;;;;;;;;;;;-0.80;100.00;100133.59;1679416;85;21038;-68
2022/01/19 11:12:10;;;;;;;8.78;4.42;;;;;;;-0.80;100.00;100129.08;1676213;85;20112;-68
2022/01/19 11:14:36;;;;;;;12.25;5.10;;;;;;;-0.88;100.00;100128.34;1633789;86;21568;-68
2022/01/19 11:17:03;;;;;;;10.70;5.15;;;;;;;-0.75;100.00;100132.02;1687495;84;21066;-69
2022/01/19 11:19:29;;;;;;;11.70;5.45;;;;;;;-0.44;100.00;100122.86;1659036;86;21580;-69
2022/01/19 11:22:07;;;;;;;12.28;5.55;;;;;;;0.05;100.00;100117.51;1659996;85;21113;-69
2022/01/19 11:24:45;;;;;;;10.20;4.50;;;;;;;0.42;100.00;100114.48;1705148;84;21076;-69
2022/01/19 11:27:11;;;;;;;10.60;5.55;;;;;;;0.59;100.00;100114.98;1697316;84;21070;-69
2022/01/19 11:29:40;;;;;;;12.25;6.33;;;;;;;0.44;100.00;100119.95;1614524;86;21124;-69
2022/01/19 11:32:16;;;;;;;12.93;5.97;;;;;;;0.38;100.00;100123.42;1649647;85;21054;-69
2022/01/19 11:34:50;;;;;;;14.30;7.00;;;;;;;0.36;100.00;100122.77;1665656;84;21542;-69
2022/01/19 11:44:35;;;;;;;21.42;11.33;;;;;;;0.11;100.00;100086.77;1799058;78;22909;-67
2022/01/19 11:47:25;;;;;;;13.45;6.85;;;;;;;-0.09;100.00;100088.48;1726827;81;21035;-67
2022/01/19 11:50:05;;;;;;;11.03;5.70;;;;;;;-0.20;100.00;100081.81;1738869;82;21035;-67
2022/01/19 11:52:41;;;;;;;11.20;5.20;;;;;;;-0.14;100.00;100077.02;1732147;82;21044;-68
2022/01/19 11:55:23;;;;;;;11.40;5.80;;;;;;;0.11;100.00;100059.99;1729369;82;21030;-67
2022/01/19 11:58:20;;;;;;;11.55;6.00;;;;;;;0.33;100.00;100057.56;1722757;83;21042;-67
2022/01/19 12:00:49;;;;;;;12.85;5.97;;;;;;;0.46;100.00;100051.46;1722753;83;21117;-68
2022/01/19 12:03:31;;;;;;;11.55;6.12;;;;;;;0.90;100.00;100053.17;1707652;82;21094;-69
2022/01/19 12:05:58;;;;;;;10.90;6.08;;;;;;;1.52;100.00;100054.73;1734467;82;21093;-69
2022/01/19 12:08:31;;;;;;;;;;;;;;;2.02;100.00;100052.45;1741289;82;21066;-69
2022/01/19 12:11:23;;;;;;;13.58;6.60;;;;;;;2.24;100.00;100047.95;1748613;82;20107;-67
2022/01/19 12:14:11;;;;;;;11.33;6.05;;;;;;;2.22;100.00;100053.23;1734000;82;21509;-67
2022/01/19 12:22:38;;;;;;;12.70;5.87;;;;;;;0.54;100.00;100059.30;1727699;81;72980;-67
2022/01/19 12:25:08;;;;;;;11.43;5.90;;;;;;;0.11;100.00;100069.36;1700645;83;21039;-67
2022/01/19 12:27:36;;;;;;;12.00;6.72;;;;;;;-0.11;100.00;100074.48;1711692;84;21647;-68
2022/01/19 12:30:19;;;;;;;12.65;6.15;;;;;;;-0.23;100.00;100073.34;1711872;83;21003;-69
2022/01/19 12:32:53;;;;;;;13.25;6.25;;;;;;;-0.33;100.00;100077.70;1722166;83;21034;-69
2022/01/19 12:35:35;;;;;;;12.15;6.12;;;;;;;-0.41;100.00;100064.45;1722292;83;21010;-68
2022/01/19 12:38:07;;;;;;;12.47;7.12;;;;;;;-0.46;100.00;100068.74;1725547;83;21015;-69
2022/01/19 12:40:43;;;;;;;12.00;6.72;;;;;;;-0.51;100.00;100071.48;1716979;82;21050;-69
2022/01/19 12:43:31;;;;;;;12.95;7.17;;;;;;;-0.54;100.00;100069.19;1727416;83;21084;-67
2022/01/19 12:45:58;;;;;;;15.58;7.87;;;;;;;-0.56;100.00;100065.03;1727439;83;21089;-67
2022/01/19 12:48:39;;;;;;;11.48;7.05;;;;;;;-0.59;100.00;100068.09;1727629;83;21038;-68
2022/01/19 12:51:06;;;;;;;13.43;7.15;;;;;;;-0.60;100.00;100067.27;1726786;83;21587;-67
2022/01/19 12:53:32;;;;;;;11.33;6.60;;;;;;;-0.66;100.00;100058.69;1726903;83;21386;-67
2022/01/19 12:56:05;;;;;;;12.23;6.22;;;;;;;-0.65;100.00;100062.19;1726837;83;21070;-67
2022/01/19 12:58:37;;;;;;;11.60;6.60;;;;;;;-0.60;100.00;100061.91;1720026;83;20995;-67
2022/01/19 13:01:09;;;;;;;17.55;6.67;;;;;;;-0.58;100.00;100049.70;1727256;83;21050;-67
2022/01/19 13:03:42;;;;;;;13.60;6.95;;;;;;;-0.60;100.00;100049.89;1727260;83;20998;-67
2022/01/19 13:06:13;;;;;;;14.63;7.28;;;;;;;-0.60;100.00;100051.73;1718097;83;21090;-66
2022/01/19 13:08:48;;;;;;;13.38;6.83;;;;;;;-0.57;100.00;100046.02;1711839;83;20987;-67